createdAt,value
2022-09-18T00:01:32.983Z,97099.53
2022-09-18T00:04:04.469Z,97101.44
2022-09-18T00:06:36.046Z,97104.75
2022-09-18T00:09:06.778Z,97111.28
2022-09-18T00:11:37.049Z,97106.16
2022-09-18T00:14:07.296Z,97096.53
2022-09-18T00:16:35.425Z,97105.44
2022-09-18T00:19:05.583Z,97101.84
2022-09-18T00:21:35.881Z,97108.78
2022-09-18T00:24:05.074Z,97106.81
2022-09-18T00:26:33.493Z,97109.81
2022-09-18T00:29:01.726Z,97109.13
2022-09-18T00:31:31.547Z,97110.59
2022-09-18T00:34:01.188Z,97104.16
2022-09-18T00:36:31.512Z,97101.75
2022-09-18T00:38:59.891Z,97108.53
2022-09-18T00:41:29.898Z,97102.19
2022-09-18T00:44:30.769Z,97104.66
2022-09-18T00:47:04.821Z,97103.91
2022-09-18T00:49:33.354Z,97102.47
2022-09-18T00:52:03.689Z,97101.25
2022-09-18T00:54:34.427Z,97110.13
2022-09-18T00:57:05.776Z,97093.47
2022-09-18T00:59:35.297Z,97101.66
2022-09-18T01:02:04.105Z,97107.97
2022-09-18T01:04:32.320Z,97102.69
2022-09-18T01:07:10.084Z,97104.81
2022-09-18T01:09:44.556Z,97101.41
2022-09-18T01:12:20.956Z,97101.50
2022-09-18T01:14:54.153Z,97104.16
2022-09-18T01:17:27.464Z,97097.13
2022-09-18T01:20:27.566Z,97099.28
2022-09-18T01:23:09.765Z,97098.63
2022-09-18T01:25:47.942Z,97097.38
2022-09-18T01:28:21.659Z,97096.47
2022-09-18T01:30:52.052Z,97097.31
2022-09-18T01:33:26.114Z,97097.28
2022-09-18T01:35:58.391Z,97095.91
2022-09-18T01:38:31.679Z,97096.38
2022-09-18T01:41:02.379Z,97109.94
2022-09-18T01:43:32.340Z,97105.34
2022-09-18T01:46:04.575Z,97105.94
2022-09-18T01:48:35.532Z,97115.19
2022-09-18T01:51:07.388Z,97110.28
2022-09-18T01:53:38.991Z,97110.94
2022-09-18T01:56:09.733Z,97111.53
2022-09-18T01:58:39.686Z,97109.94
2022-09-18T02:01:13.212Z,97112.47
2022-09-18T02:03:46.222Z,97104.31
2022-09-18T02:06:17.831Z,97108.78
2022-09-18T02:08:48.893Z,97113.22
2022-09-18T02:11:18.622Z,97115.31
2022-09-18T02:13:52.575Z,97118.41
2022-09-18T02:16:24.679Z,97123.47
2022-09-18T02:18:55.164Z,97112.44
2022-09-18T02:21:27.063Z,97120.03
2022-09-18T02:23:56.491Z,97121.03
2022-09-18T02:26:25.152Z,97124.38
2022-09-18T02:28:54.733Z,97120.25
2022-09-18T02:31:23.115Z,97123.78
2022-09-18T02:33:51.176Z,97116.66
2022-09-18T02:36:36.343Z,97119.94
2022-09-18T02:39:13.943Z,97119.34
2022-09-18T02:41:47.350Z,97130.59
2022-09-18T02:44:21.013Z,97130.34
2022-09-18T02:46:58.321Z,97123.91
2022-09-18T02:49:36.982Z,97130.00
2022-09-18T02:52:07.793Z,97129.72
2022-09-18T02:54:43.044Z,97119.88
2022-09-18T02:57:15.350Z,97121.81
2022-09-18T02:59:47.545Z,97121.00
2022-09-18T03:02:15.831Z,97129.84
2022-09-18T03:04:45.365Z,97117.44
2022-09-18T03:07:16.297Z,97119.50
2022-09-18T03:09:44.376Z,97125.50
2022-09-18T03:12:13.046Z,97125.84
2022-09-18T03:14:41.127Z,97128.06
2022-09-18T03:17:11.081Z,97125.38
2022-09-18T03:19:39.312Z,97121.75
2022-09-18T03:22:07.406Z,97119.31
2022-09-18T03:24:35.473Z,97122.31
2022-09-18T03:27:04.038Z,97118.63
2022-09-18T03:29:32.246Z,97125.88
2022-09-18T03:32:00.336Z,97120.50
2022-09-18T03:34:30.008Z,97125.50
2022-09-18T03:36:58.158Z,97130.38
2022-09-18T03:39:26.144Z,97127.09
2022-09-18T03:41:54.440Z,97128.09
2022-09-18T03:44:22.548Z,97133.25
2022-09-18T03:46:50.987Z,97129.88
2022-09-18T03:49:19.338Z,97131.97
2022-09-18T03:51:48.784Z,97132.63
2022-09-18T03:54:17.153Z,97125.81
2022-09-18T03:56:45.769Z,97119.91
2022-09-18T03:59:13.956Z,97124.41
2022-09-18T04:01:42.123Z,97120.66
2022-09-18T04:04:10.768Z,97125.03
2022-09-18T04:06:39.192Z,97127.34
2022-09-18T04:09:09.005Z,97121.81
2022-09-18T04:11:37.220Z,97126.22
2022-09-18T04:14:05.661Z,97132.38
2022-09-18T04:16:33.823Z,97128.31
2022-09-18T04:19:02.095Z,97133.81
2022-09-18T04:21:30.440Z,97133.34
2022-09-18T04:24:01.705Z,97126.06
2022-09-18T04:26:31.319Z,97123.94
2022-09-18T04:28:59.436Z,97129.75
2022-09-18T04:31:27.538Z,97122.00
2022-09-18T04:33:55.861Z,97125.88
2022-09-18T04:36:24.501Z,97139.81
2022-09-18T04:38:52.728Z,97136.75
2022-09-18T04:41:20.921Z,97138.22
2022-09-18T04:43:50.549Z,97142.97
2022-09-18T04:46:18.628Z,97142.41
2022-09-18T04:48:48.747Z,97148.59
2022-09-18T04:51:16.923Z,97148.06
2022-09-18T04:53:44.984Z,97142.56
2022-09-18T04:56:13.196Z,97146.13
2022-09-18T04:58:41.240Z,97142.72
2022-09-18T05:01:10.852Z,97142.72
2022-09-18T05:03:39.391Z,97144.25
2022-09-18T05:06:07.611Z,97144.78
2022-09-18T05:08:36.099Z,97147.00
2022-09-18T05:11:05.022Z,97136.81
2022-09-18T05:13:33.132Z,97142.91
2022-09-18T05:16:01.184Z,97140.50
2022-09-18T05:18:30.919Z,97147.00
2022-09-18T05:21:02.384Z,97143.25
2022-09-18T05:23:30.600Z,97133.94
2022-09-18T05:25:58.634Z,97143.00
2022-09-18T05:28:26.870Z,97148.34
2022-09-18T05:31:00.172Z,97143.84
2022-09-18T05:33:28.471Z,97149.59
2022-09-18T05:35:58.897Z,97147.00
2022-09-18T05:38:27.632Z,97137.53
2022-09-18T05:40:55.808Z,97143.31
2022-09-18T05:43:24.287Z,97142.81
2022-09-18T05:45:52.464Z,97148.31
2022-09-18T05:48:20.781Z,97151.66
2022-09-18T05:50:51.993Z,97155.56
2022-09-18T05:53:22.721Z,97156.22
2022-09-18T05:55:51.047Z,97154.22
2022-09-18T05:58:20.112Z,97140.16
2022-09-18T06:00:51.310Z,97142.41
2022-09-18T06:03:19.689Z,97145.44
2022-09-18T06:05:53.652Z,97145.00
2022-09-18T06:08:24.369Z,97151.25
2022-09-18T06:10:54.847Z,97160.81
2022-09-18T06:13:23.142Z,97156.63
2022-09-18T06:15:53.018Z,97143.19
2022-09-18T06:18:21.286Z,97155.34
2022-09-18T06:20:54.430Z,97162.91
2022-09-18T06:23:25.106Z,97158.78
2022-09-18T06:25:59.141Z,97164.88
2022-09-18T06:28:27.501Z,97167.56
2022-09-18T06:30:55.857Z,97162.94
2022-09-18T06:33:23.947Z,97164.63
2022-09-18T06:35:52.335Z,97166.47
2022-09-18T06:38:20.491Z,97164.41
2022-09-18T06:40:51.045Z,97166.09
2022-09-18T06:43:19.524Z,97167.63
2022-09-18T06:45:52.900Z,97171.78
2022-09-18T06:48:21.414Z,97169.91
2022-09-18T06:50:53.295Z,97170.59
2022-09-18T06:53:21.547Z,97162.91
2022-09-18T06:55:51.614Z,97165.16
2022-09-18T06:58:20.563Z,97170.13
2022-09-18T07:00:48.640Z,97162.06
2022-09-18T07:03:17.001Z,97169.41
2022-09-18T07:05:46.153Z,97163.00
2022-09-18T07:08:14.672Z,97169.97
2022-09-18T07:10:42.981Z,97170.47
2022-09-18T07:13:12.770Z,97173.41
2022-09-18T07:15:40.738Z,97163.53
2022-09-18T07:18:09.241Z,97169.31
2022-09-18T07:20:37.274Z,97175.03
2022-09-18T07:23:05.510Z,97173.91
2022-09-18T07:25:34.763Z,97168.84
2022-09-18T07:28:08.051Z,97174.75
2022-09-18T07:30:38.706Z,97172.09
2022-09-18T07:33:08.279Z,97174.78
2022-09-18T07:35:36.805Z,97178.09
2022-09-18T07:38:07.360Z,97183.28
2022-09-18T07:40:35.770Z,97183.94
2022-09-18T07:43:06.032Z,97175.25
2022-09-18T07:45:35.136Z,97182.97
2022-09-18T07:48:05.690Z,97176.59
2022-09-18T07:50:34.000Z,97168.28
2022-09-18T07:53:03.804Z,97176.53
2022-09-18T07:55:32.816Z,97175.00
2022-09-18T07:58:02.932Z,97176.84
2022-09-18T08:00:34.824Z,97188.59
2022-09-18T08:03:05.329Z,97179.41
2022-09-18T08:05:34.249Z,97185.59
2022-09-18T08:08:05.960Z,97170.16
2022-09-18T08:10:35.157Z,97184.63
2022-09-18T08:13:03.810Z,97181.47
2022-09-18T08:15:32.224Z,97191.28
2022-09-18T08:18:00.513Z,97179.94
2022-09-18T08:20:30.142Z,97183.28
2022-09-18T08:22:58.610Z,97178.94
2022-09-18T08:25:28.234Z,97182.59
2022-09-18T08:28:00.659Z,97183.97
2022-09-18T08:30:30.527Z,97189.84
2022-09-18T08:33:00.696Z,97182.47
2022-09-18T08:35:31.350Z,97183.31
2022-09-18T08:37:59.848Z,97183.84
2022-09-18T08:40:39.347Z,97186.81
2022-09-18T08:43:11.274Z,97193.81
2022-09-18T08:45:53.002Z,97178.16
2022-09-18T08:48:24.360Z,97184.09
2022-09-18T08:50:56.060Z,97164.91
2022-09-18T08:53:35.812Z,97182.28
2022-09-18T08:56:07.870Z,97179.31
2022-09-18T08:58:40.581Z,97178.13
2022-09-18T09:01:11.350Z,97183.69
2022-09-18T09:03:49.754Z,97194.28
2022-09-18T09:06:29.568Z,97190.22
2022-09-18T09:09:22.823Z,97188.22
2022-09-18T09:11:55.351Z,97192.13
2022-09-18T09:14:55.549Z,97187.13
2022-09-18T09:17:40.017Z,97181.72
2022-09-18T09:20:19.742Z,97185.09
2022-09-18T09:22:52.943Z,97175.94
2022-09-18T09:25:24.315Z,97165.75
2022-09-18T09:27:53.751Z,97168.81
2022-09-18T09:30:22.217Z,97165.44
2022-09-18T09:32:53.664Z,97162.81
2022-09-18T09:35:26.420Z,97169.59
2022-09-18T09:37:56.236Z,97158.34
2022-09-18T09:40:32.501Z,97161.75
2022-09-18T09:43:03.527Z,97164.72
2022-09-18T09:45:34.837Z,97169.06
2022-09-18T09:48:07.815Z,97158.94
2022-09-18T09:50:41.698Z,97167.63
2022-09-18T09:53:13.098Z,97160.59
2022-09-18T09:55:49.061Z,97179.38
2022-09-18T09:58:24.348Z,97193.72
2022-09-18T10:00:57.690Z,97190.75
2022-09-18T10:03:36.883Z,97194.22
2022-09-18T10:06:12.643Z,97188.66
2022-09-18T10:08:46.731Z,97192.28
2022-09-18T10:11:15.626Z,97199.97
2022-09-18T10:13:47.608Z,97198.75
2022-09-18T10:16:18.939Z,97195.50
2022-09-18T10:18:49.546Z,97200.09
2022-09-18T10:21:19.367Z,97205.81
2022-09-18T10:23:52.732Z,97201.03
2022-09-18T10:26:24.545Z,97215.03
2022-09-18T10:28:52.653Z,97208.50
2022-09-18T10:31:21.041Z,97205.44
2022-09-18T10:33:51.333Z,97210.78
2022-09-18T10:36:34.624Z,97203.75
2022-09-18T10:39:18.463Z,97198.78
2022-09-18T10:41:47.111Z,97213.50
2022-09-18T10:44:23.980Z,97214.63
2022-09-18T10:46:55.510Z,97220.03
2022-09-18T10:49:26.831Z,97219.38
2022-09-18T10:52:22.510Z,97206.69
2022-09-18T10:55:12.799Z,97214.75
2022-09-18T10:57:43.835Z,97220.69
2022-09-18T11:00:28.266Z,97216.09
2022-09-18T11:02:58.732Z,97210.69
2022-09-18T11:05:31.372Z,97216.47
2022-09-18T11:08:01.968Z,97220.63
2022-09-18T11:10:34.133Z,97217.81
2022-09-18T11:13:04.136Z,97219.09
2022-09-18T11:15:34.387Z,97204.34
2022-09-18T11:18:04.946Z,97211.56
2022-09-18T11:20:35.242Z,97200.09
2022-09-18T11:23:16.576Z,97210.88
2022-09-18T11:25:47.355Z,97205.56
2022-09-18T11:28:24.041Z,97220.41
2022-09-18T11:30:58.466Z,97215.16
2022-09-18T11:33:29.054Z,97213.56
2022-09-18T11:36:02.120Z,97214.03
2022-09-18T11:38:30.533Z,97213.81
2022-09-18T11:41:01.767Z,97204.16
2022-09-18T11:43:32.885Z,97215.97
2022-09-18T11:46:06.928Z,97229.81
2022-09-18T11:48:39.032Z,97227.75
2022-09-18T11:51:13.404Z,97223.88
2022-09-18T11:53:44.576Z,97240.78
2022-09-18T11:56:16.388Z,97231.91
2022-09-18T11:58:47.229Z,97236.56
2022-09-18T12:01:27.921Z,97233.03
2022-09-18T12:04:01.785Z,97235.19
2022-09-18T12:06:36.019Z,97238.31
2022-09-18T12:09:15.301Z,97243.88
2022-09-18T12:11:51.624Z,97251.00
2022-09-18T12:14:23.039Z,97222.41
2022-09-18T12:16:59.014Z,97234.31
2022-09-18T12:19:32.344Z,97217.66
2022-09-18T12:22:06.460Z,97241.19
2022-09-18T12:24:34.724Z,97223.28
2022-09-18T12:27:14.290Z,97233.34
2022-09-18T12:29:55.879Z,97256.84
2022-09-18T12:32:42.154Z,97250.59
2022-09-18T12:35:17.471Z,97250.53
2022-09-18T12:37:56.892Z,97247.88
2022-09-18T12:40:36.619Z,97254.91
2022-09-18T12:43:37.354Z,97251.59
2022-09-18T12:46:16.868Z,97255.50
2022-09-18T12:49:03.629Z,97266.16
2022-09-18T12:51:39.859Z,97262.78
2022-09-18T12:54:35.289Z,97272.94
2022-09-18T12:57:16.681Z,97280.03
2022-09-18T12:59:54.329Z,97270.63
2022-09-18T13:02:32.891Z,97280.72
2022-09-18T13:05:04.667Z,97289.25
2022-09-18T13:07:33.553Z,97287.31
2022-09-18T13:10:07.145Z,97292.31
2022-09-18T13:12:39.750Z,97285.53
2022-09-18T13:15:15.197Z,97296.28
2022-09-18T13:17:48.800Z,97288.72
2022-09-18T13:20:24.092Z,97288.50
2022-09-18T13:22:54.034Z,97300.03
2022-09-18T13:25:33.058Z,97309.78
2022-09-18T13:28:03.442Z,97311.19
2022-09-18T13:30:33.814Z,97321.69
2022-09-18T13:33:02.996Z,97315.66
2022-09-18T13:35:32.549Z,97321.59
2022-09-18T13:38:17.734Z,97326.06
2022-09-18T13:40:48.018Z,97334.53
2022-09-18T13:43:34.959Z,97326.53
2022-09-18T13:46:07.313Z,97319.19
2022-09-18T13:48:42.910Z,97331.88
2022-09-18T13:51:12.796Z,97338.56
2022-09-18T13:53:42.952Z,97331.59
2022-09-18T13:56:12.559Z,97334.56
2022-09-18T13:58:52.649Z,97329.09
2022-09-18T14:01:55.053Z,97348.56
2022-09-18T14:05:09.972Z,97336.59
2022-09-18T14:08:14.389Z,97342.75
2022-09-18T14:11:19.553Z,97344.00
2022-09-18T14:13:51.911Z,97348.13
2022-09-18T14:16:30.019Z,97341.44
2022-09-18T14:19:02.606Z,97345.53
2022-09-18T14:21:32.917Z,97354.38
2022-09-18T14:24:43.213Z,97350.38
2022-09-18T14:27:34.673Z,97362.78
2022-09-18T14:30:13.196Z,97358.59
2022-09-18T14:32:42.193Z,97364.03
2022-09-18T14:35:25.036Z,97361.22
2022-09-18T14:37:53.243Z,97359.41
2022-09-18T14:40:24.871Z,97368.31
2022-09-18T14:42:54.213Z,97357.09
2022-09-18T14:45:28.549Z,97358.13
2022-09-18T14:47:56.944Z,97361.94
2022-09-18T14:50:33.960Z,97368.56
2022-09-18T14:53:03.809Z,97369.00
2022-09-18T14:55:36.054Z,97375.66
2022-09-18T14:58:07.980Z,97367.91
2022-09-18T15:00:38.265Z,97365.69
2022-09-18T15:03:09.157Z,97373.75
2022-09-18T15:05:38.113Z,97369.88
2022-09-18T15:08:08.658Z,97376.84
2022-09-18T15:10:39.826Z,97379.53
2022-09-18T15:13:09.810Z,97381.56
2022-09-18T15:15:40.190Z,97380.03
2022-09-18T15:18:19.870Z,97379.91
2022-09-18T15:20:50.763Z,97372.94
2022-09-18T15:23:26.473Z,97373.84
2022-09-18T15:25:57.512Z,97373.00
2022-09-18T15:28:27.554Z,97374.66
2022-09-18T15:30:58.282Z,97372.19
2022-09-18T15:33:27.494Z,97371.56
2022-09-18T15:35:56.587Z,97374.38
2022-09-18T15:38:26.881Z,97369.72
2022-09-18T15:40:55.937Z,97374.91
2022-09-18T15:43:43.800Z,97369.00
2022-09-18T15:46:13.975Z,97372.94
2022-09-18T15:48:45.369Z,97361.75
2022-09-18T15:51:17.298Z,97365.91
2022-09-18T15:54:07.719Z,97352.75
2022-09-18T15:56:37.143Z,97363.03
2022-09-18T15:59:08.210Z,97357.94
2022-09-18T16:01:42.252Z,97355.56
2022-09-18T16:04:20.398Z,97362.78
2022-09-18T16:06:55.620Z,97367.72
2022-09-18T16:09:42.334Z,97365.63
2022-09-18T16:12:35.919Z,97363.19
2022-09-18T16:15:20.672Z,97364.16
2022-09-18T16:18:03.951Z,97366.81
2022-09-18T16:20:34.875Z,97367.06
2022-09-18T16:23:15.404Z,97367.03
2022-09-18T16:25:45.602Z,97370.63
2022-09-18T16:28:24.962Z,97374.06
2022-09-18T16:30:55.172Z,97367.78
2022-09-18T16:33:26.029Z,97365.06
2022-09-18T16:36:01.848Z,97371.22
2022-09-18T16:38:30.525Z,97373.84
2022-09-18T16:40:58.734Z,97367.00
2022-09-18T16:43:27.338Z,97373.72
2022-09-18T16:45:57.410Z,97374.31
2022-09-18T16:48:26.025Z,97373.97
2022-09-18T16:50:54.412Z,97376.84
2022-09-18T16:53:22.482Z,97378.69
2022-09-18T16:55:53.239Z,97379.47
2022-09-18T16:58:22.471Z,97383.78
2022-09-18T17:00:50.730Z,97380.50
2022-09-18T17:03:20.376Z,97385.59
2022-09-18T17:05:48.473Z,97374.59
2022-09-18T17:08:16.955Z,97381.56
2022-09-18T17:10:45.471Z,97377.34
2022-09-18T17:13:13.925Z,97383.56
2022-09-18T17:15:42.501Z,97381.97
2022-09-18T17:18:11.132Z,97394.00
2022-09-18T17:20:40.892Z,97394.88
2022-09-18T17:23:09.604Z,97400.59
2022-09-18T17:25:38.001Z,97399.34
2022-09-18T17:28:06.234Z,97402.09
2022-09-18T17:30:34.645Z,97394.59
2022-09-18T17:33:03.213Z,97398.03
2022-09-18T17:35:31.354Z,97388.00
2022-09-18T17:38:01.003Z,97397.41
2022-09-18T17:40:29.690Z,97404.72
2022-09-18T17:42:58.093Z,97400.50
2022-09-18T17:45:26.372Z,97411.81
2022-09-18T17:47:54.688Z,97421.22
2022-09-18T17:50:24.992Z,97426.06
2022-09-18T17:52:53.398Z,97414.47
2022-09-18T17:55:22.845Z,97408.75
2022-09-18T17:57:52.956Z,97398.16
2022-09-18T18:00:22.016Z,97396.94
2022-09-18T18:02:50.432Z,97406.03
2022-09-18T18:05:19.320Z,97402.81
2022-09-18T18:07:47.630Z,97403.19
2022-09-18T18:10:15.884Z,97395.91
2022-09-18T18:12:45.497Z,97390.06
2022-09-18T18:15:13.947Z,97391.88
2022-09-18T18:17:43.095Z,97397.06
2022-09-18T18:20:11.630Z,97405.09
2022-09-18T18:22:40.090Z,97406.13
2022-09-18T18:25:09.721Z,97407.38
2022-09-18T18:27:37.890Z,97401.41
2022-09-18T18:30:10.325Z,97401.81
2022-09-18T18:32:42.901Z,97408.25
2022-09-18T18:35:11.664Z,97407.25
2022-09-18T18:37:39.709Z,97399.50
2022-09-18T18:40:08.676Z,97400.59
2022-09-18T18:42:37.006Z,97393.66
2022-09-18T18:45:07.876Z,97388.00
2022-09-18T18:47:36.617Z,97397.09
2022-09-18T18:50:06.130Z,97388.00
2022-09-18T18:52:34.359Z,97401.63
2022-09-18T18:55:02.746Z,97389.81
2022-09-18T18:57:31.718Z,97394.81
2022-09-18T18:59:59.843Z,97390.78
2022-09-18T19:02:32.230Z,97395.56
2022-09-18T19:05:03.161Z,97392.06
2022-09-18T19:07:32.663Z,97396.41
2022-09-18T19:10:01.779Z,97389.03
2022-09-18T19:12:31.325Z,97393.72
2022-09-18T19:14:59.459Z,97389.03
2022-09-18T19:17:29.245Z,97381.59
2022-09-18T19:19:58.873Z,97385.81
2022-09-18T19:22:27.169Z,97390.63
2022-09-18T19:24:55.451Z,97396.78
2022-09-18T19:27:23.742Z,97383.38
2022-09-18T19:29:51.825Z,97380.00
2022-09-18T19:32:21.181Z,97385.00
2022-09-18T19:34:50.827Z,97386.22
2022-09-18T19:37:19.909Z,97387.72
2022-09-18T19:39:50.427Z,97386.28
2022-09-18T19:42:18.817Z,97380.94
2022-09-18T19:44:48.298Z,97381.41
2022-09-18T19:47:22.014Z,97377.00
2022-09-18T19:49:52.033Z,97380.13
2022-09-18T19:52:22.504Z,97376.25
2022-09-18T19:54:53.118Z,97374.16
2022-09-18T19:57:23.261Z,97380.78
2022-09-18T19:59:54.297Z,97390.28
2022-09-18T20:02:22.793Z,97368.19
2022-09-18T20:04:52.414Z,97375.13
2022-09-18T20:07:20.620Z,97380.28
2022-09-18T20:09:48.932Z,97375.25
2022-09-18T20:12:17.107Z,97379.78
2022-09-18T20:14:45.297Z,97370.25
2022-09-18T20:17:13.760Z,97367.63
2022-09-18T20:19:42.155Z,97373.97
2022-09-18T20:22:11.870Z,97371.56
2022-09-18T20:24:40.717Z,97361.69
2022-09-18T20:27:08.813Z,97365.84
2022-09-18T20:29:37.803Z,97367.47
2022-09-18T20:32:06.151Z,97363.91
2022-09-18T20:34:34.420Z,97360.84
2022-09-18T20:37:03.421Z,97359.72
2022-09-18T20:39:33.251Z,97354.91
2022-09-18T20:42:01.578Z,97356.34
2022-09-18T20:44:30.354Z,97369.59
2022-09-18T20:46:58.670Z,97367.19
2022-09-18T20:49:27.038Z,97367.69
2022-09-18T20:51:55.623Z,97368.66
2022-09-18T20:54:24.259Z,97355.75
2022-09-18T20:56:54.459Z,97358.91
2022-09-18T20:59:22.503Z,97356.06
2022-09-18T21:01:51.080Z,97354.72
2022-09-18T21:04:21.815Z,97354.00
2022-09-18T21:06:56.350Z,97343.38
2022-09-18T21:09:26.402Z,97336.78
2022-09-18T21:11:56.824Z,97343.38
2022-09-18T21:14:27.518Z,97346.34
2022-09-18T21:16:56.085Z,97342.94
2022-09-18T21:19:26.292Z,97344.38
2022-09-18T21:21:54.842Z,97340.03
2022-09-18T21:24:23.238Z,97341.75
2022-09-18T21:26:51.380Z,97338.22
2022-09-18T21:29:22.852Z,97341.53
2022-09-18T21:31:52.272Z,97337.31
2022-09-18T21:34:24.476Z,97336.19
2022-09-18T21:36:56.457Z,97335.50
2022-09-18T21:39:25.955Z,97336.34
2022-09-18T21:41:54.053Z,97335.56
2022-09-18T21:44:27.072Z,97333.47
2022-09-18T21:46:56.042Z,97334.22
2022-09-18T21:49:24.346Z,97329.72
2022-09-18T21:51:55.215Z,97341.53
2022-09-18T21:54:24.440Z,97349.13
2022-09-18T21:56:52.898Z,97339.16
2022-09-18T21:59:22.299Z,97339.00
2022-09-18T22:01:54.896Z,97330.34
2022-09-18T22:04:26.228Z,97327.38
2022-09-18T22:06:55.626Z,97321.00
2022-09-18T22:09:25.974Z,97308.50
2022-09-18T22:11:54.494Z,97311.69
2022-09-18T22:14:29.927Z,97323.91
2022-09-18T22:16:59.780Z,97320.31
2022-09-18T22:19:28.198Z,97321.56
2022-09-18T22:21:56.441Z,97314.44
2022-09-18T22:24:25.664Z,97313.03
2022-09-18T22:26:56.531Z,97312.69
2022-09-18T22:29:26.364Z,97318.22
2022-09-18T22:31:55.176Z,97317.81
2022-09-18T22:34:26.482Z,97311.41
2022-09-18T22:36:55.041Z,97307.97
2022-09-18T22:39:24.013Z,97305.91
2022-09-18T22:41:52.528Z,97312.06
2022-09-18T22:44:21.441Z,97312.03
2022-09-18T22:46:52.082Z,97312.50
2022-09-18T22:49:21.363Z,97310.38
2022-09-18T22:51:51.586Z,97311.75
2022-09-18T22:54:23.771Z,97307.22
2022-09-18T22:56:52.467Z,97293.63
2022-09-18T22:59:22.271Z,97295.19
2022-09-18T23:01:52.243Z,97295.16
2022-09-18T23:04:23.563Z,97299.38
2022-09-18T23:06:53.479Z,97307.41
2022-09-18T23:09:21.663Z,97302.03
2022-09-18T23:11:52.013Z,97303.56
2022-09-18T23:14:21.772Z,97309.84
2022-09-18T23:16:50.674Z,97303.13
2022-09-18T23:19:21.005Z,97303.97
2022-09-18T23:21:49.271Z,97301.47
2022-09-18T23:24:19.001Z,97315.44
2022-09-18T23:26:49.266Z,97310.25
2022-09-18T23:29:18.649Z,97308.81
2022-09-18T23:31:50.492Z,97312.22
2022-09-18T23:34:20.294Z,97309.31
2022-09-18T23:36:49.741Z,97307.19
2022-09-18T23:39:21.430Z,97305.69
2022-09-18T23:41:50.119Z,97311.66
2022-09-18T23:44:20.381Z,97309.72
2022-09-18T23:46:48.795Z,97306.09
2022-09-18T23:49:22.381Z,97311.41
2022-09-18T23:51:52.684Z,97309.91
2022-09-18T23:54:24.070Z,97307.47
2022-09-18T23:56:52.592Z,97306.25
2022-09-18T23:59:23.021Z,97301.91
